Time;durP1;ratioP1;P1;durP2;ratioP2;P2;SDS_P1;SDS_P2;PMS_P1;PMS_P2;Temp;Humidity;BMP_temperature;BMP_pressure;BME280_temperature;BME280_humidity;BME280_pressure;Samples;Min_cycle;Max_cycle;Signal;HPM_P1;HPM_P2
2021/01/25 00:01:04;;;;;;;27.05;2.70;;;;;;;17.15;61.11;101224.06;5012568;28;20050;-65
2021/01/25 00:03:33;;;;;;;25.52;2.42;;;;;;;17.17;61.27;101229.41;5013052;28;20133;-65
2021/01/25 00:06:00;;;;;;;17.90;2.58;;;;;;;17.16;60.89;101223.16;5012320;28;20052;-65
2021/01/25 00:08:26;;;;;;;23.38;2.42;;;;;;;17.16;61.21;101217.84;5013255;28;20044;-65
2021/01/25 00:10:53;;;;;;;18.42;2.05;;;;;;;17.16;61.02;101219.63;5012722;28;20034;-65
2021/01/25 00:13:20;;;;;;;28.58;2.67;;;;;;;17.16;61.04;101215.16;5012634;28;20078;-65
2021/01/25 00:15:49;;;;;;;11.88;2.00;;;;;;;17.16;60.96;101220.50;5008820;28;20073;-65
2021/01/25 00:18:16;;;;;;;24.83;3.05;;;;;;;17.16;60.86;101209.81;5012533;28;20125;-65
2021/01/25 00:20:44;;;;;;;15.60;2.75;;;;;;;17.17;60.90;101205.38;5012307;28;20536;-65
2021/01/25 00:23:11;;;;;;;18.95;2.53;;;;;;;17.17;61.40;101190.25;5012998;28;20042;-65
2021/01/25 00:25:38;;;;;;;24.50;4.22;;;;;;;17.18;61.38;101183.16;5011555;28;20038;-65
2021/01/25 00:28:05;;;;;;;19.45;2.92;;;;;;;17.19;61.10;101192.94;5012460;28;20129;-65
2021/01/25 00:30:32;;;;;;;20.50;2.35;;;;;;;17.22;60.74;101185.78;5011910;28;20038;-65
2021/01/25 00:32:59;;;;;;;20.23;2.80;;;;;;;17.24;60.81;101186.69;5012337;28;20050;-65
2021/01/25 00:35:27;;;;;;;18.75;2.50;;;;;;;17.24;60.43;101191.13;5012215;28;20503;-65
2021/01/25 00:37:55;;;;;;;22.77;3.58;;;;;;;17.25;60.63;101193.78;5011928;28;20053;-64
2021/01/25 00:40:22;;;;;;;16.23;3.00;;;;;;;17.27;60.63;101191.97;5012522;28;20034;-65
2021/01/25 00:42:49;;;;;;;20.17;3.65;;;;;;;17.27;60.60;101183.97;5011978;28;20052;-65
2021/01/25 00:45:16;;;;;;;13.68;2.88;;;;;;;17.25;60.45;101175.13;5011750;28;20129;-65
2021/01/25 00:47:44;;;;;;;42.67;3.38;;;;;;;17.21;60.54;101169.78;5011984;28;20034;-65
2021/01/25 00:50:11;;;;;;;23.13;2.90;;;;;;;17.21;60.41;101175.13;5012436;28;20030;-65
2021/01/25 00:52:38;;;;;;;23.25;2.08;;;;;;;17.19;60.62;101166.25;5012017;28;20042;-65
2021/01/25 00:55:10;;;;;;;17.70;3.40;;;;;;;17.17;61.05;101162.69;5011986;28;20065;-64
2021/01/25 00:57:38;;;;;;;27.58;2.70;;;;;;;17.17;60.85;101173.38;5012163;28;20613;-65
2021/01/25 01:00:08;;;;;;;25.33;2.97;;;;;;;17.16;60.60;101158.25;5012255;28;20042;-65
2021/01/25 01:02:36;;;;;;;32.10;3.65;;;;;;;17.15;60.71;101176.03;5011918;28;20042;-65
2021/01/25 01:05:04;;;;;;;16.73;2.75;;;;;;;17.13;60.58;101165.38;5011780;28;20038;-65
2021/01/25 01:07:31;;;;;;;23.73;3.30;;;;;;;17.11;60.81;101161.84;5011754;28;20522;-64
2021/01/25 01:09:58;;;;;;;19.80;2.70;;;;;;;17.11;61.08;101171.63;5012172;28;20066;-65
2021/01/25 01:12:26;;;;;;;21.05;3.10;;;;;;;17.10;60.51;101170.72;5012147;28;20046;-65
2021/01/25 01:14:53;;;;;;;22.83;2.92;;;;;;;17.11;60.61;101176.94;5011406;28;20038;-65
2021/01/25 01:17:20;;;;;;;35.92;6.95;;;;;;;17.10;61.05;101161.84;5011711;28;20572;-65
2021/01/25 01:19:47;;;;;;;18.48;3.92;;;;;;;17.09;61.04;101158.28;5011523;28;20042;-65
2021/01/25 01:22:14;;;;;;;16.13;2.95;;;;;;;17.08;60.53;101156.50;5011854;28;20038;-65
2021/01/25 01:24:40;;;;;;;13.35;1.88;;;;;;;17.09;60.95;101155.63;5010869;28;20042;-65
2021/01/25 01:27:07;;;;;;;27.63;2.63;;;;;;;17.10;60.79;101148.50;5011774;28;20092;-65
2021/01/25 01:29:36;;;;;;;23.63;2.63;;;;;;;17.08;61.19;101156.50;5011414;28;20038;-64
2021/01/25 01:32:03;;;;;;;25.85;2.40;;;;;;;17.08;61.20;101147.59;5011840;28;20040;-65
2021/01/25 01:34:30;;;;;;;21.13;2.65;;;;;;;17.08;60.96;101136.94;5009712;28;20053;-64
2021/01/25 01:36:57;;;;;;;13.43;2.60;;;;;;;17.08;60.33;101145.84;5011412;28;20394;-65
2021/01/25 01:39:24;;;;;;;25.02;2.35;;;;;;;17.07;60.41;101125.38;5010896;28;20038;-65
2021/01/25 01:41:51;;;;;;;15.95;2.58;;;;;;;17.07;60.69;101129.81;5011159;28;20080;-65
2021/01/25 01:44:17;;;;;;;21.83;2.75;;;;;;;17.06;60.89;101122.75;5011201;28;20050;-65
2021/01/25 01:46:47;;;;;;;25.17;2.85;;;;;;;17.04;61.12;101128.06;5011196;28;20124;-65
2021/01/25 01:49:14;;;;;;;19.33;2.97;;;;;;;17.04;60.62;101120.06;5011046;28;20134;-65
2021/01/25 01:51:42;;;;;;;16.88;2.30;;;;;;;17.05;60.67;101126.31;5011092;28;20050;-65
2021/01/25 01:54:10;;;;;;;21.13;2.50;;;;;;;17.06;60.99;101128.06;5011092;28;20049;-65
2021/01/25 01:56:37;;;;;;;15.30;2.95;;;;;;;17.05;60.54;101118.28;5010647;28;20121;-65
2021/01/25 01:59:04;;;;;;;24.80;4.78;;;;;;;17.05;60.64;101115.63;5011331;28;20049;-65
2021/01/25 02:01:32;;;;;;;16.48;4.50;;;;;;;17.04;61.02;101117.41;5010870;28;20133;-65
2021/01/25 02:04:00;;;;;;;28.00;5.70;;;;;;;17.04;60.58;101121.84;5011231;28;20050;-65
2021/01/25 02:06:30;;;;;;;21.55;3.22;;;;;;;17.03;60.77;101112.97;5010782;28;20042;-65
2021/01/25 02:08:59;;;;;;;18.60;4.25;;;;;;;17.05;60.75;101105.84;5010100;28;20065;-65
2021/01/25 02:11:29;;;;;;;20.75;3.58;;;;;;;17.08;60.76;101110.25;5011072;28;20040;-65
2021/01/25 02:13:56;;;;;;;26.20;3.78;;;;;;;17.06;60.63;101107.63;5010586;28;20060;-65
2021/01/25 02:16:24;;;;;;;28.63;3.45;;;;;;;17.05;60.56;101096.97;5010593;28;20038;-65
2021/01/25 02:18:52;;;;;;;44.03;10.32;;;;;;;17.01;60.76;101096.06;4990958;28;20042;-65
2021/01/25 02:21:21;;;;;;;30.10;8.43;;;;;;;17.01;60.42;101098.72;4997798;28;20482;-64
2021/01/25 02:24:02;;;;;;;20.85;6.28;;;;;;;17.00;61.01;101098.78;5010461;28;20049;-65
2021/01/25 02:26:41;;;;;;;17.67;3.20;;;;;;;16.98;60.96;101095.22;5009870;28;20030;-64
2021/01/25 02:29:09;;;;;;;24.98;3.90;;;;;;;16.97;60.70;101094.31;5010194;28;20598;-65
2021/01/25 02:31:38;;;;;;;26.52;3.40;;;;;;;16.96;60.56;101094.31;5009996;28;20441;-65
2021/01/25 02:34:06;;;;;;;30.80;2.70;;;;;;;16.94;60.46;101081.00;5010246;28;20048;-65
2021/01/25 02:36:34;;;;;;;26.20;3.22;;;;;;;16.93;61.13;101089.03;5010209;28;20046;-66
2021/01/25 02:39:04;;;;;;;18.70;2.72;;;;;;;16.92;60.85;101085.47;5010405;28;20041;-65
2021/01/25 02:41:32;;;;;;;30.42;3.25;;;;;;;16.92;60.55;101076.56;5010116;28;20042;-64
2021/01/25 02:44:02;;;;;;;25.08;2.78;;;;;;;16.92;60.93;101080.13;5009632;28;20046;-65
2021/01/25 02:46:32;;;;;;;24.55;3.00;;;;;;;16.92;60.84;101066.81;5009605;28;20044;-64
2021/01/25 02:48:59;;;;;;;24.23;3.30;;;;;;;16.93;60.75;101073.03;5009874;28;20059;-65
2021/01/25 02:51:26;;;;;;;26.13;2.35;;;;;;;16.93;60.72;101051.69;5010667;28;20049;-65
2021/01/25 02:53:52;;;;;;;22.73;2.35;;;;;;;16.93;60.47;101057.03;5009798;28;20034;-65
2021/01/25 02:56:20;;;;;;;20.55;3.35;;;;;;;16.94;60.28;101058.75;5009417;28;20084;-65
2021/01/25 02:58:47;;;;;;;23.92;3.13;;;;;;;16.93;60.53;101041.91;5009337;28;20072;-65
2021/01/25 03:01:14;;;;;;;32.28;3.80;;;;;;;16.94;60.45;101046.31;5010112;28;20049;-65
2021/01/25 03:03:45;;;;;;;26.10;2.83;;;;;;;16.92;60.81;101040.13;5009682;28;20103;-65
2021/01/25 03:06:12;;;;;;;28.80;3.35;;;;;;;16.93;60.45;101033.03;5009815;28;20526;-65
2021/01/25 03:08:39;;;;;;;24.70;3.30;;;;;;;16.93;61.00;101033.03;5009411;28;20125;-65
2021/01/25 03:11:06;;;;;;;21.80;3.33;;;;;;;16.91;60.78;101010.78;5010299;28;20042;-65
2021/01/25 03:13:33;;;;;;;29.40;3.42;;;;;;;16.91;60.52;101025.03;5008234;28;20072;-64
2021/01/25 03:16:02;;;;;;;32.72;3.25;;;;;;;16.91;61.00;101030.34;5009637;28;20052;-65
2021/01/25 03:18:29;;;;;;;22.58;4.05;;;;;;;16.91;60.51;101034.78;5009362;28;20125;-64
2021/01/25 03:20:58;;;;;;;30.80;5.25;;;;;;;16.91;60.57;101026.78;5009678;28;20046;-65
2021/01/25 03:23:25;;;;;;;22.55;3.63;;;;;;;16.90;60.50;101022.34;5010166;28;20117;-65
2021/01/25 03:25:52;;;;;;;22.55;3.00;;;;;;;16.90;60.62;101019.69;5009030;28;20558;-65
2021/01/25 03:28:19;;;;;;;22.17;3.08;;;;;;;16.88;60.68;101006.34;5010215;28;20053;-65
2021/01/25 03:30:46;;;;;;;31.20;3.05;;;;;;;16.88;60.84;101002.81;5009518;28;20042;-65
2021/01/25 03:33:13;;;;;;;35.38;3.17;;;;;;;16.88;60.28;100997.47;5010043;28;20068;-65
2021/01/25 03:35:40;;;;;;;23.27;2.85;;;;;;;16.88;60.60;100989.47;5008724;28;20057;-65
2021/01/25 03:38:08;;;;;;;19.77;2.97;;;;;;;16.87;60.46;100993.06;5009870;28;20077;-65
2021/01/25 03:40:35;;;;;;;23.83;3.30;;;;;;;16.87;60.53;100985.91;5009212;28;20042;-65
2021/01/25 03:43:02;;;;;;;15.23;2.30;;;;;;;16.87;60.56;100969.06;5009937;28;20116;-65
2021/01/25 03:45:29;;;;;;;22.02;3.30;;;;;;;16.89;60.02;100969.91;5009114;28;20030;-65
2021/01/25 03:47:56;;;;;;;28.35;3.00;;;;;;;16.89;59.92;100968.13;5009167;28;20061;-65
2021/01/25 03:50:23;;;;;;;32.58;3.95;;;;;;;16.89;60.14;100959.25;5009757;28;20049;-65
2021/01/25 03:52:50;;;;;;;26.23;3.33;;;;;;;16.88;60.32;100955.69;5009434;28;20049;-65
2021/01/25 03:55:18;;;;;;;20.65;3.38;;;;;;;16.87;60.44;100932.56;5008893;28;20398;-65
2021/01/25 03:57:45;;;;;;;30.15;3.65;;;;;;;16.87;59.63;100913.06;4991228;28;20072;-65
2021/01/25 04:00:13;;;;;;;15.32;2.63;;;;;;;16.89;59.71;100911.25;4990335;28;20054;-65
2021/01/25 04:02:40;;;;;;;20.30;3.13;;;;;;;16.89;60.04;100903.25;5006289;28;20134;-65
2021/01/25 04:05:09;;;;;;;37.38;4.50;;;;;;;16.89;60.02;100908.56;5013246;28;20402;-65
2021/01/25 04:07:36;;;;;;;15.90;2.50;;;;;;;16.90;59.71;100929.00;5011811;28;20040;-65
2021/01/25 04:10:04;;;;;;;23.73;3.63;;;;;;;16.90;59.84;100940.56;5012824;28;20054;-65
2021/01/25 04:12:32;;;;;;;36.42;3.63;;;;;;;16.92;59.67;100949.47;5011523;28;20394;-65
2021/01/25 04:14:59;;;;;;;40.17;3.58;;;;;;;16.92;59.87;100957.47;5013109;28;20200;-64
2021/01/25 04:17:26;;;;;;;26.42;4.13;;;;;;;16.93;59.61;100955.69;5012388;28;20049;-65
2021/01/25 04:19:53;;;;;;;28.75;3.63;;;;;;;16.94;59.39;100965.41;5012641;28;20069;-65
2021/01/25 04:22:20;;;;;;;30.27;3.22;;;;;;;16.95;60.02;100972.53;5012986;28;20038;-65
2021/01/25 04:24:47;;;;;;;41.95;4.47;;;;;;;16.94;60.14;100976.97;5012658;28;20048;-65
2021/01/25 04:27:14;;;;;;;21.98;3.40;;;;;;;16.95;59.48;100994.75;5012284;28;20049;-66
2021/01/25 04:29:42;;;;;;;28.33;3.42;;;;;;;16.96;59.57;101009.88;5012607;28;20046;-65
2021/01/25 04:32:09;;;;;;;41.08;3.40;;;;;;;16.98;59.33;101023.19;5012888;28;20096;-65
2021/01/25 04:34:36;;;;;;;32.95;4.05;;;;;;;16.99;59.62;101027.63;5012168;28;20038;-65
2021/01/25 04:37:03;;;;;;;29.35;3.80;;;;;;;16.99;59.84;101039.19;5012149;28;20046;-65
2021/01/25 04:39:30;;;;;;;32.28;4.28;;;;;;;17.00;59.65;101043.59;5012187;28;20137;-65
2021/01/25 04:41:57;;;;;;;32.35;6.43;;;;;;;17.02;59.46;101038.28;5012205;28;20057;-65
2021/01/25 04:44:24;;;;;;;32.05;4.05;;;;;;;17.05;59.34;101051.59;5011559;28;20137;-65
2021/01/25 04:46:53;;;;;;;38.63;3.75;;;;;;;17.07;59.72;101058.69;5011725;28;20093;-65
2021/01/25 04:49:21;;;;;;;32.17;3.40;;;;;;;17.08;59.73;101040.91;5012114;28;20042;-65
2021/01/25 04:51:49;;;;;;;24.35;3.58;;;;;;;17.10;59.83;101039.13;5011913;28;20042;-65
2021/01/25 04:54:17;;;;;;;35.30;3.92;;;;;;;17.12;59.25;101037.34;5012226;28;20042;-64
2021/01/25 04:56:45;;;;;;;31.92;3.60;;;;;;;17.15;59.29;101037.28;5011311;28;20129;-65
2021/01/25 04:59:12;;;;;;;20.58;3.35;;;;;;;17.17;59.57;101040.84;5012243;28;20066;-65
2021/01/25 05:01:39;;;;;;;26.10;3.15;;;;;;;17.20;59.49;101045.28;5011387;28;20034;-64
2021/01/25 05:04:06;;;;;;;26.33;3.22;;;;;;;17.22;59.00;101035.47;5012316;28;20088;-65
2021/01/25 05:06:35;;;;;;;27.85;4.03;;;;;;;17.23;59.37;101048.81;5011189;28;20129;-65
2021/01/25 05:09:02;;;;;;;24.30;3.20;;;;;;;17.25;58.97;101057.69;5011027;28;20129;-65
2021/01/25 05:11:30;;;;;;;26.67;4.15;;;;;;;17.27;58.78;101057.66;5011169;28;20038;-63
2021/01/25 05:14:03;;;;;;;49.25;4.90;;;;;;;17.29;59.49;101059.44;5011868;28;20518;-64
2021/01/25 05:16:31;;;;;;;34.83;4.07;;;;;;;17.31;59.49;101049.66;5011516;28;20038;-64
2021/01/25 05:19:00;;;;;;;26.75;3.88;;;;;;;17.31;59.47;101046.97;5012144;28;20049;-65
2021/01/25 05:21:38;;;;;;;23.02;3.85;;;;;;;17.32;59.08;101043.41;5011494;28;20069;-65
2021/01/25 05:24:06;;;;;;;29.73;5.15;;;;;;;17.34;58.96;101046.94;5011079;28;20062;-65
2021/01/25 05:26:34;;;;;;;28.45;4.55;;;;;;;17.37;59.48;101043.38;5011350;28;20125;-64
2021/01/25 05:29:02;;;;;;;31.75;4.05;;;;;;;17.39;59.49;101042.44;5011862;28;20407;-65
2021/01/25 05:31:29;;;;;;;29.77;4.80;;;;;;;17.41;59.11;101050.44;5011273;28;20034;-65
2021/01/25 05:33:56;;;;;;;37.88;6.07;;;;;;;17.45;59.12;101066.44;5011482;28;20121;-65
2021/01/25 05:36:26;;;;;;;31.40;4.72;;;;;;;17.47;59.27;101077.09;5011605;28;20095;-65
2021/01/25 05:38:54;;;;;;;29.30;4.05;;;;;;;17.51;58.88;101074.41;5011251;28;20113;-65
2021/01/25 05:41:22;;;;;;;38.63;4.78;;;;;;;17.60;58.94;101083.22;5011228;28;20036;-65
2021/01/25 05:43:50;;;;;;;44.40;4.85;;;;;;;17.71;59.01;101094.75;5010512;28;20038;-65
2021/01/25 05:46:19;;;;;;;35.08;5.78;;;;;;;17.80;58.81;101087.53;5011577;28;20045;-65
2021/01/25 05:48:57;;;;;;;30.25;4.68;;;;;;;17.89;58.75;101083.91;5010724;28;20038;-65
2021/01/25 05:51:30;;;;;;;48.08;6.38;;;;;;;17.94;59.15;101084.75;5011028;28;20033;-65
2021/01/25 05:54:01;;;;;;;41.90;5.72;;;;;;;18.02;59.05;101066.84;4994341;28;20466;-65
2021/01/25 05:56:28;;;;;;;33.03;5.35;;;;;;;18.14;58.46;101073.84;5011279;28;20042;-65
2021/01/25 05:58:55;;;;;;;32.25;5.70;;;;;;;18.21;58.66;101065.75;5010714;28;20503;-65
2021/01/25 06:01:23;;;;;;;43.47;4.97;;;;;;;18.22;58.74;101064.88;5010939;28;20121;-65
2021/01/25 06:03:50;;;;;;;33.25;4.95;;;;;;;18.19;58.51;101048.84;5009455;28;20045;-65
2021/01/25 06:06:22;;;;;;;36.08;4.68;;;;;;;18.12;58.83;101041.78;5010663;28;20037;-65
2021/01/25 06:08:58;;;;;;;35.53;6.25;;;;;;;18.08;58.75;101044.53;5009252;28;20052;-65
2021/01/25 06:11:29;;;;;;;38.60;6.35;;;;;;;18.05;58.44;101040.09;5010805;28;20073;-65
2021/01/25 06:13:59;;;;;;;30.50;5.10;;;;;;;18.04;58.80;101034.78;5010848;28;20045;-65
2021/01/25 06:16:29;;;;;;;40.97;5.32;;;;;;;18.03;58.67;101019.66;5011010;28;20118;-65
2021/01/25 06:18:59;;;;;;;43.90;9.32;;;;;;;18.05;58.65;101001.81;5010653;28;20113;-65
2021/01/25 06:21:28;;;;;;;32.88;6.07;;;;;;;18.08;58.90;100959.91;5010866;28;20431;-65
2021/01/25 06:23:56;;;;;;;40.08;4.90;;;;;;;18.11;58.59;100942.97;5010360;28;20050;-65
2021/01/25 06:26:26;;;;;;;34.45;5.07;;;;;;;18.15;58.78;100929.53;5010910;28;20491;-65
2021/01/25 06:28:53;;;;;;;38.78;6.80;;;;;;;18.16;58.92;100888.56;5009597;28;20052;-64
2021/01/25 06:31:21;;;;;;;42.78;6.00;;;;;;;18.16;58.51;100891.22;5008986;28;20061;-66
2021/01/25 06:33:49;;;;;;;39.15;4.30;;;;;;;18.11;58.66;100857.47;5009162;28;20510;-66
2021/01/25 06:36:18;;;;;;;41.42;5.82;;;;;;;18.04;58.36;100878.03;5009181;28;20038;-65
2021/01/25 06:38:48;;;;;;;36.30;4.28;;;;;;;18.06;58.65;100872.66;5010326;28;20502;-65
2021/01/25 06:41:16;;;;;;;42.38;4.57;;;;;;;18.17;58.68;100885.00;5010724;28;20057;-64
2021/01/25 06:43:46;;;;;;;48.15;5.13;;;;;;;18.28;58.18;100884.84;5009449;28;20037;-64
2021/01/25 06:46:18;;;;;;;36.55;4.80;;;;;;;18.64;57.66;100864.75;5010394;28;20556;-64
2021/01/25 06:48:49;;;;;;;44.88;10.38;;;;;;;18.77;57.67;100860.06;5009686;28;20100;-65
2021/01/25 06:51:18;;;;;;;49.05;7.55;;;;;;;18.66;57.09;100869.13;5010359;28;20096;-64
2021/01/25 06:53:48;;;;;;;48.00;6.97;;;;;;;18.69;57.27;100894.97;5005987;28;20038;-65
2021/01/25 06:56:15;;;;;;;26.50;5.05;;;;;;;19.31;56.56;100868.91;5009086;28;20057;-65
2021/01/25 06:58:48;;;;;;;36.03;4.45;;;;;;;19.80;56.02;100883.16;5010080;28;20038;-65
2021/01/25 07:01:20;;;;;;;30.13;5.88;;;;;;;20.14;55.23;100886.03;4987632;28;20037;-65
2021/01/25 07:03:53;;;;;;;34.25;7.32;;;;;;;20.35;54.81;100879.31;5009082;28;20034;-64
2021/01/25 07:06:20;;;;;;;40.38;7.40;;;;;;;20.33;54.86;100864.19;5005759;28;20380;-65
2021/01/25 07:08:54;;;;;;;42.40;6.05;;;;;;;20.53;54.80;100860.13;5009870;28;20042;-65
2021/01/25 07:11:23;;;;;;;49.72;7.30;;;;;;;20.68;54.38;100881.22;5009392;28;20491;-65
2021/01/25 07:13:51;;;;;;;34.58;6.38;;;;;;;20.68;54.46;100861.53;5009190;28;20141;-65
2021/01/25 07:16:18;;;;;;;31.13;6.85;;;;;;;20.81;54.14;100863.00;5009260;28;20399;-65
2021/01/25 07:18:48;;;;;;;30.38;5.70;;;;;;;20.91;54.16;100861.88;5009938;28;20499;-65
2021/01/25 07:21:15;;;;;;;44.03;6.85;;;;;;;20.92;53.78;100876.19;5007883;28;20041;-65
2021/01/25 07:23:44;;;;;;;37.10;6.90;;;;;;;20.85;53.74;100871.88;5009261;28;20465;-65
2021/01/25 07:26:12;;;;;;;33.92;9.38;;;;;;;20.71;54.09;100882.94;5009909;28;20084;-65
2021/01/25 07:28:40;;;;;;;40.88;9.48;;;;;;;20.86;53.66;100890.63;5007908;28;20445;-65
2021/01/25 07:31:09;;;;;;;36.85;9.02;;;;;;;21.00;54.03;100909.09;5009323;28;20042;-65
2021/01/25 07:33:37;;;;;;;48.42;9.95;;;;;;;21.14;53.32;100904.22;5007976;28;20038;-65
2021/01/25 07:36:05;;;;;;;52.95;9.50;;;;;;;21.28;53.47;100901.22;5009762;28;20073;-65
2021/01/25 07:38:32;;;;;;;22.27;8.63;;;;;;;21.26;52.90;100920.09;5013362;28;20045;-66
2021/01/25 07:41:01;;;;;;;33.92;7.88;;;;;;;21.30;52.85;100935.19;5013963;28;20054;-64
2021/01/25 07:43:28;;;;;;;39.72;12.07;;;;;;;21.40;52.73;100917.00;5013598;28;20129;-64
2021/01/25 07:46:04;;;;;;;36.58;9.77;;;;;;;21.50;52.27;100934.66;5012960;28;20042;-64
2021/01/25 07:48:32;;;;;;;40.55;7.50;;;;;;;21.64;52.31;100942.38;5006279;28;20564;-65
2021/01/25 07:50:59;;;;;;;44.88;13.20;;;;;;;21.71;52.20;100943.97;5008100;28;20070;-64
2021/01/25 07:53:33;;;;;;;36.13;14.10;;;;;;;21.77;51.69;100947.38;5007746;28;20042;-65
2021/01/25 07:56:00;;;;;;;43.55;13.40;;;;;;;21.88;51.40;100939.00;5008149;28;20406;-64
2021/01/25 07:58:26;;;;;;;47.25;12.65;;;;;;;21.86;51.37;100954.25;5011808;28;20038;-64
2021/01/25 08:00:54;;;;;;;36.15;12.82;;;;;;;21.91;51.14;100973.88;5012109;28;20034;-64
2021/01/25 08:03:24;;;;;;;43.45;18.35;;;;;;;21.96;51.26;100954.94;5010226;28;20048;-63
2021/01/25 08:05:55;;;;;;;27.75;9.32;;;;;;;22.02;50.99;100973.59;5000812;28;20092;-63
2021/01/25 08:08:26;;;;;;;40.63;8.32;;;;;;;22.05;51.24;100970.84;5005404;28;20042;-63
2021/01/25 08:10:54;;;;;;;36.10;7.65;;;;;;;22.04;51.01;100983.38;5005115;28;20057;-63
2021/01/25 08:13:27;;;;;;;49.78;15.38;;;;;;;22.07;50.87;100996.72;5010375;28;20080;-64
2021/01/25 08:16:00;;;;;;;28.50;10.05;;;;;;;22.11;51.25;100990.38;5010671;28;20038;-63
2021/01/25 08:18:36;;;;;;;34.97;10.80;;;;;;;22.15;51.03;101002.78;5004919;28;20133;-64
2021/01/25 08:21:05;;;;;;;39.20;6.15;;;;;;;22.19;51.05;100988.31;5003947;28;20053;-64
2021/01/25 08:23:39;;;;;;;35.72;11.57;;;;;;;22.21;50.75;101005.31;5010125;28;20084;-63
2021/01/25 08:26:07;;;;;;;33.28;11.38;;;;;;;22.24;50.87;100999.84;5011181;28;20034;-63
2021/01/25 08:28:41;;;;;;;52.67;14.40;;;;;;;22.24;50.59;101012.41;5008773;28;20480;-62
2021/01/25 08:31:11;;;;;;;32.22;10.95;;;;;;;22.27;50.19;101010.50;5003768;28;20038;-62
2021/01/25 08:33:40;;;;;;;28.67;7.20;;;;;;;22.29;50.13;101007.78;5009356;28;20455;-62
2021/01/25 08:36:09;;;;;;;33.22;4.68;;;;;;;22.31;50.39;101005.06;5004222;28;20045;-61
2021/01/25 08:38:40;;;;;;;24.70;3.63;;;;;;;22.24;50.50;101033.94;5005860;28;20148;-62
2021/01/25 08:41:23;;;;;;;21.25;4.60;;;;;;;22.09;50.45;101031.66;5008927;28;20136;-62
2021/01/25 08:43:56;;;;;;;25.90;7.25;;;;;;;22.13;50.19;101025.25;5010636;28;20034;-62
2021/01/25 08:46:30;;;;;;;35.67;6.85;;;;;;;22.18;50.08;101035.00;5010572;28;20402;-61
2021/01/25 08:49:09;;;;;;;39.33;11.75;;;;;;;22.20;50.39;101022.34;5010967;28;20044;-62
2021/01/25 08:51:37;;;;;;;31.40;8.05;;;;;;;22.27;50.28;101028.44;5009724;28;20052;-62
2021/01/25 08:54:06;;;;;;;32.38;7.97;;;;;;;22.31;50.63;101016.69;5011375;28;20038;-61
2021/01/25 08:56:39;;;;;;;30.13;10.23;;;;;;;22.32;50.42;101015.75;5010191;28;20076;-61
2021/01/25 08:59:09;;;;;;;46.65;12.98;;;;;;;22.30;50.65;101004.16;5010215;28;20506;-62
2021/01/25 09:01:36;;;;;;;28.02;4.10;;;;;;;22.24;50.72;100967.56;5011022;28;20038;-62
2021/01/25 09:04:06;;;;;;;29.60;10.63;;;;;;;22.15;50.41;100992.03;5007781;28;20992;-63
2021/01/25 09:06:38;;;;;;;26.52;7.10;;;;;;;22.12;50.54;101004.69;5000763;28;20051;-62
2021/01/25 09:09:06;;;;;;;24.75;3.63;;;;;;;22.08;50.78;100990.44;5007057;28;20717;-62
2021/01/25 09:11:38;;;;;;;49.75;21.50;;;;;;;22.07;50.84;100983.28;5011114;28;20077;-61
2021/01/25 09:14:05;;;;;;;29.45;11.10;;;;;;;22.08;50.31;100985.06;5010577;28;20042;-63
2021/01/25 09:16:33;;;;;;;41.47;7.45;;;;;;;22.06;50.27;100997.66;5009777;28;20046;-62
2021/01/25 09:19:00;;;;;;;24.05;5.80;;;;;;;22.03;50.45;101010.31;5012065;28;20140;-62
2021/01/25 09:21:27;;;;;;;34.75;7.63;;;;;;;22.05;50.63;101013.84;5009284;28;20144;-62
2021/01/25 09:23:54;;;;;;;34.75;7.70;;;;;;;22.08;50.66;100995.81;5010901;28;20189;-61
2021/01/25 09:26:21;;;;;;;31.40;5.22;;;;;;;22.08;50.84;101016.44;5010389;28;20042;-62
2021/01/25 09:28:48;;;;;;;31.60;6.75;;;;;;;22.05;50.97;101006.66;5010461;28;20026;-62
2021/01/25 09:31:16;;;;;;;40.40;13.07;;;;;;;22.06;50.79;101000.34;5007751;28;20077;-62
2021/01/25 09:33:44;;;;;;;41.47;18.35;;;;;;;22.06;50.33;100997.66;5011073;28;20406;-62
2021/01/25 09:36:12;;;;;;;49.30;19.50;;;;;;;22.05;50.55;101008.47;5009897;28;20042;-62
2021/01/25 09:38:39;;;;;;;55.58;22.52;;;;;;;22.04;50.85;101006.72;5008754;28;20034;-62
2021/01/25 09:41:06;;;;;;;38.03;5.90;;;;;;;22.04;50.47;100990.56;5010365;28;20038;-62
2021/01/25 09:43:33;;;;;;;44.25;7.90;;;;;;;22.02;50.73;101001.38;5010171;28;20046;-62
2021/01/25 09:46:00;;;;;;;41.47;7.20;;;;;;;22.02;50.72;101006.75;5011588;28;20125;-61
2021/01/25 09:48:27;;;;;;;25.35;5.25;;;;;;;22.02;50.57;101011.22;5010045;28;20048;-62
2021/01/25 09:50:55;;;;;;;41.08;9.93;;;;;;;22.01;50.68;101014.84;5009423;28;20046;-61
2021/01/25 09:53:22;;;;;;;37.38;7.10;;;;;;;22.00;50.08;101000.50;5009574;28;20042;-62
2021/01/25 09:55:50;;;;;;;44.70;9.40;;;;;;;22.01;49.96;101015.72;5009933;28;20038;-61
2021/01/25 09:58:18;;;;;;;36.33;8.38;;;;;;;22.03;50.20;101015.69;5010327;28;20036;-62
2021/01/25 10:00:44;;;;;;;44.30;12.10;;;;;;;22.05;49.53;101030.00;5008895;28;20121;-62
2021/01/25 10:03:12;;;;;;;37.90;8.38;;;;;;;22.07;49.71;101009.28;5010167;28;20038;-61
2021/01/25 10:05:38;;;;;;;47.35;8.13;;;;;;;22.09;49.32;100980.56;5007901;28;20322;-62
2021/01/25 10:08:06;;;;;;;51.85;7.55;;;;;;;22.06;49.00;101005.72;5009917;28;20521;-62
2021/01/25 10:10:33;;;;;;;41.63;8.20;;;;;;;22.07;49.61;100993.16;5009559;28;20040;-62
2021/01/25 10:13:00;;;;;;;40.08;13.00;;;;;;;22.08;49.25;101003.88;5008463;28;20052;-62
2021/01/25 10:15:27;;;;;;;32.70;9.10;;;;;;;22.11;49.52;101001.13;5009548;28;20030;-61
2021/01/25 10:17:54;;;;;;;44.33;10.95;;;;;;;22.11;49.39;101001.13;5004914;28;20045;-63
2021/01/25 10:20:21;;;;;;;42.65;5.15;;;;;;;22.14;49.60;101001.00;5006802;28;20046;-64
2021/01/25 10:22:48;;;;;;;56.28;8.90;;;;;;;22.14;49.66;101011.78;5009801;28;20062;-63
2021/01/25 10:25:18;;;;;;;42.42;5.03;;;;;;;22.11;49.32;101011.00;5009488;28;20050;-62
2021/01/25 10:27:45;;;;;;;57.05;6.20;;;;;;;22.10;49.86;101006.53;5009183;28;20157;-64
2021/01/25 10:30:15;;;;;;;25.65;4.70;;;;;;;22.06;50.00;101003.03;5009176;28;20117;-63
2021/01/25 10:32:42;;;;;;;45.15;6.20;;;;;;;21.99;50.26;100985.31;5008630;28;20042;-63
2021/01/25 10:35:11;;;;;;;43.85;6.15;;;;;;;21.93;50.03;100976.50;5010196;28;20049;-63
2021/01/25 10:37:38;;;;;;;36.38;5.57;;;;;;;21.89;50.42;100967.63;5009040;28;20080;-63
2021/01/25 10:40:07;;;;;;;58.58;8.48;;;;;;;21.83;50.47;100966.00;5011217;28;20506;-64
2021/01/25 10:42:35;;;;;;;35.13;6.00;;;;;;;21.84;50.14;100972.28;5009699;28;20042;-64
2021/01/25 10:45:02;;;;;;;44.88;5.97;;;;;;;21.82;50.24;100960.66;5010459;28;20045;-63
2021/01/25 10:47:29;;;;;;;42.83;7.13;;;;;;;21.79;50.58;100968.84;5010056;28;20038;-64
2021/01/25 10:49:56;;;;;;;44.17;10.10;;;;;;;21.74;50.55;100989.56;5009293;28;20046;-64
2021/01/25 10:52:23;;;;;;;44.90;13.75;;;;;;;21.71;51.04;100974.41;5009768;28;20034;-63
2021/01/25 10:54:51;;;;;;;44.60;6.43;;;;;;;21.65;50.96;100969.19;5010149;28;20125;-64
2021/01/25 10:57:18;;;;;;;36.50;8.68;;;;;;;21.62;51.24;100979.13;5023401;28;20049;-64
2021/01/25 10:59:46;;;;;;;65.07;11.10;;;;;;;21.58;51.32;100981.03;5029703;28;20044;-64
2021/01/25 11:02:13;;;;;;;58.40;8.07;;;;;;;21.56;51.30;100974.81;5030132;28;20045;-63
2021/01/25 11:04:40;;;;;;;50.95;9.32;;;;;;;21.52;51.67;100943.56;5010491;28;20125;-64
2021/01/25 11:07:07;;;;;;;49.10;7.18;;;;;;;21.48;51.77;100947.25;5009754;28;20125;-64
2021/01/25 11:09:34;;;;;;;43.00;5.97;;;;;;;21.47;52.09;100948.16;4980495;28;20046;-63
2021/01/25 11:12:01;;;;;;;53.15;7.28;;;;;;;21.44;51.70;100957.22;5014313;28;20041;-64
2021/01/25 11:14:28;;;;;;;42.45;9.60;;;;;;;21.43;51.73;100941.13;5014448;28;20109;-65
2021/01/25 11:16:56;;;;;;;55.67;14.45;;;;;;;21.37;51.25;100923.38;5012479;28;20040;-62
2021/01/25 11:19:23;;;;;;;56.70;9.70;;;;;;;21.35;51.79;100913.56;5014411;28;20395;-65
2021/01/25 11:21:50;;;;;;;59.38;7.10;;;;;;;21.33;51.62;100920.81;5013175;28;20044;-62